Latest Weather Observations for Swan Island

IDT60801

Issued at 10:32 pm EDT Sunday 19 February 2017 (issued every 30 minutes, with the page automatically refreshed every 10 minutes)

About weather observations | Map of weather stations | Latest weather observations for TAS | Other Formats
Station Details ID: 092123 Name: SWAN ISLAND Lat: -40.73 Lon: 148.12 Height: 15.0 m
Data from the previous 72 hours. | See also: Recent months at Swan Island
Date/Time
EDT
Temp
°C
App
Temp
°C
Dew
Point
°C
Rel
Hum
%
Delta-T
°C
Wind Press
QNH
hPa
Press
MSL
hPa
Rain since
9am
mm
Dir  Spd
km/h
Gust
km/h
Spd
kts
Gust
kts
19/10:00pm 14.4 10.4 8.1 66 3.2 NW 19 24 10 13 1006.3 1006.3 1.6
19/09:30pm 14.0 10.7 8.2 68 2.9 NW 15 19 8 10 1006.3 1006.3 1.6
19/09:00pm 14.3 9.8 8.5 68 2.9 NW 22 28 12 15 1006.0 1006.0 1.6
19/08:30pm 14.3 10.2 8.5 68 2.9 NW 20 26 11 14 1005.7 1005.7 1.6
19/08:00pm 14.4 9.4 8.1 66 3.2 NNW 24 28 13 15 1005.3 1005.3 1.6
19/07:30pm 14.7 9.3 8.2 65 3.3 NNW 26 33 14 18 1005.1 1005.1 1.6
19/07:00pm 14.4 10.1 7.7 64 3.3 NW 20 24 11 13 1005.0 1005.0 1.6
19/06:30pm 15.4 10.7 7.9 61 3.8 NW 22 28 12 15 1004.8 1004.8 1.6
19/06:00pm 15.8 11.8 6.8 55 4.4 WNW 17 24 9 13 1004.9 1004.9 1.6
19/05:30pm 15.1 11.1 8.3 64 3.4 WNW 19 28 10 15 1004.8 1004.8 1.6
19/05:00pm 15.4 13.9 9.3 67 3.2 NW 7 11 4 6 1004.5 1004.5 1.6
19/04:30pm 14.6 13.1 9.2 70 2.8 NW 7 11 4 6 1004.7 1004.7 1.6
19/04:00pm 13.0 8.4 8.3 73 2.3 NW 22 33 12 18 1004.9 1004.9 1.6
19/03:30pm 15.9 13.0 9.6 66 3.3 NW 15 24 8 13 1004.7 1004.7 1.2
19/03:00pm 15.4 11.6 8.9 65 3.3 NW 19 28 10 15 1004.9 1004.9 1.2
19/02:30pm 15.8 12.2 9.7 67 3.2 NW 19 28 10 15 1004.8 1004.8 1.2
19/02:00pm 16.0 13.2 10.1 68 3.1 WNW 15 22 8 12 1004.8 1004.8 1.2
19/01:30pm 15.0 12.3 11.6 80 1.8 NW 17 24 9 13 1004.9 1004.9 1.2
19/01:00pm 13.9 9.1 11.8 87 1.1 NNW 28 33 15 18 1005.0 1005.0 1.2
19/12:30pm 12.8 6.1 10.9 88 1.0 NNW 37 46 20 25 1005.3 1005.3 1.2
19/12:00pm 13.0 7.3 11.1 88 1.0 NNW 32 37 17 20 1005.3 1005.3 1.2
19/11:30am 13.6 6.6 11.1 85 1.3 NNW 39 46 21 25 1005.1 1005.1 0.2
19/11:00am 14.2 7.7 10.2 77 2.1 NNW 35 41 19 22 1005.1 1005.1 0.2
19/10:30am 14.4 8.1 9.8 74 2.4 NNW 33 39 18 21 1005.2 1005.2 0.2
19/10:00am 14.4 8.8 10.2 76 2.2 NNW 30 39 16 21 1005.0 1005.0 0.2
19/09:30am 13.3 8.0 9.9 80 1.7 NW 28 43 15 23 1005.1 1005.1 0.0
19/09:00am 13.7 9.1 10.9 83 1.5 NW 26 32 14 17 1005.0 1005.0 5.6
19/08:30am 13.0 9.7 10.9 87 1.1 NW 19 30 10 16 1005.1 1005.1 5.6
19/08:00am 11.9 9.5 10.0 88 1.0 WNW 13 20 7 11 1005.1 1005.1 5.6
19/07:30am 12.1 9.4 10.3 89 0.9 WNW 15 24 8 13 1005.1 1005.1 5.2
19/07:00am 11.3 8.0 9.6 89 0.9 W 17 26 9 14 1005.0 1005.0 5.0
19/06:30am 11.5 7.7 9.2 86 1.2 W 19 37 10 20 1005.0 1005.0 4.8
19/06:00am 11.6 7.6 9.2 85 1.2 W 20 28 11 15 1004.6 1004.6 2.8
19/05:40am 12.9 7.6 9.7 81 1.6 NW 28 39 15 21 1004.7 1004.7 2.6
19/05:30am 13.5 6.5 10.1 80 1.8 NNW 37 44 20 24 1004.6 1004.6 2.4
19/05:00am 12.1 6.3 9.3 83 1.4 NW 30 37 16 20 1004.8 1004.8 2.4
19/04:30am 12.8 7.6 8.9 77 2.0 W 26 43 14 23 1005.4 1005.4 0.6
19/04:00am 13.9 9.0 8.3 69 2.8 WNW 24 35 13 19 1005.4 1005.4 0.2
19/03:30am 13.8 8.0 9.3 74 2.3 NW 30 39 16 21 1005.7 1005.7 0.2
19/03:00am 12.4 5.7 8.1 75 2.1 NW 33 57 18 31 1006.1 1006.1 0.2
19/02:53am 12.6 3.8 8.1 74 2.2 NW 44 57 24 31 1006.1 1006.1 0.0
19/02:46am 14.6 8.2 8.5 67 3.1 WNW 32 50 17 27 1006.0 1006.0 0.0
19/02:30am 14.5 8.1 7.1 61 3.6 WNW 30 44 16 24 1006.2 1006.2 0.0
19/02:00am 14.5 8.3 7.8 64 3.3 WNW 30 44 16 24 1006.4 1006.4 0.0
19/01:30am 14.5 8.0 6.6 59 3.8 WNW 30 43 16 23 1006.4 1006.4 0.0
19/01:00am 14.5 7.6 6.3 58 4.0 WNW 32 41 17 22 1006.8 1006.8 0.0
19/12:30am 14.6 8.7 7.4 62 3.5 WNW 28 41 15 22 1006.9 1006.9 0.0
19/12:00am 14.6 8.1 6.7 59 3.8 WNW 30 39 16 21 1007.0 1007.0 0.0
 
Date/Time
EDT
Temp
°C
App
Temp
°C
Dew
Point
°C
Rel
Hum
%
Delta-T
°C
Wind Press
QNH
hPa
Press
MSL
hPa
Rain since
9am
mm
Dir  Spd
km/h
Gust
km/h
Spd
kts
Gust
kts
18/11:30pm 14.6 8.8 7.9 64 3.3 WNW 28 39 15 21 1007.2 1007.2 0.0
18/11:00pm 14.4 7.8 7.7 64 3.3 WNW 32 44 17 24 1007.4 1007.4 0.0
18/10:30pm 14.6 7.8 6.7 59 3.8 WNW 32 46 17 25 1007.7 1007.7 0.0
18/10:00pm 14.7 8.5 8.0 64 3.4 WNW 30 43 16 23 1007.7 1007.7 0.0
18/09:30pm 14.6 8.3 7.2 61 3.6 WNW 30 41 16 22 1007.7 1007.7 0.0
18/09:00pm 14.7 8.0 7.3 61 3.7 WNW 32 43 17 23 1007.7 1007.7 0.0
18/08:30pm 14.8 7.9 7.1 60 3.8 WNW 33 43 18 23 1007.4 1007.4 0.0
18/08:00pm 14.9 9.0 7.5 61 3.7 WNW 28 43 15 23 1007.4 1007.4 0.0
18/07:30pm 15.3 9.0 7.3 59 4.0 WNW 30 41 16 22 1007.2 1007.2 0.0
18/07:00pm 15.5 9.6 7.3 58 4.1 WNW 28 43 15 23 1006.9 1006.9 0.0
18/06:30pm 16.2 10.7 7.7 57 4.3 WNW 26 37 14 20 1006.7 1006.7 0.0
18/06:00pm 16.4 10.1 7.6 56 4.4 WNW 30 46 16 25 1007.0 1007.0 0.0
18/05:30pm 16.4 10.1 7.3 55 4.5 WNW 30 44 16 24 1006.9 1006.9 0.0
18/05:00pm 16.9 10.2 7.5 54 4.7 WNW 32 43 17 23 1006.8 1006.8 0.0
18/04:30pm 17.2 11.1 8.1 55 4.6 WNW 30 43 16 23 1006.9 1006.9 0.0
18/04:00pm 17.4 11.1 7.2 51 5.1 WNW 30 43 16 23 1007.0 1007.0 0.0
18/03:30pm 17.7 11.7 7.2 50 5.3 WNW 28 39 15 21 1007.2 1007.2 0.0
18/03:00pm 17.9 11.9 7.0 49 5.5 W 28 39 15 21 1007.3 1007.3 0.0
18/02:30pm 18.1 12.1 6.9 48 5.6 WNW 28 39 15 21 1007.4 1007.4 0.0
18/02:00pm 18.0 12.5 7.4 50 5.4 WNW 26 37 14 20 1007.6 1007.6 0.0
18/01:30pm 18.0 12.7 6.8 48 5.6 WNW 24 37 13 20 1007.6 1007.6 0.0
18/01:00pm 18.2 13.3 7.0 48 5.6 W 22 33 12 18 1007.8 1007.8 0.0
18/12:30pm 18.0 13.5 6.8 48 5.6 WNW 20 32 11 17 1007.9 1007.9 0.0
18/12:00pm 18.3 14.0 7.7 50 5.4 WNW 20 35 11 19 1008.1 1008.1 0.0
18/11:30am 17.2 12.4 7.3 52 5.0 W 22 33 12 18 1008.0 1008.0 0.0
18/11:00am 16.8 12.4 7.2 53 4.8 W 20 28 11 15 1008.0 1008.0 0.0
18/10:30am 16.7 12.5 7.4 54 4.6 W 19 28 10 15 1008.1 1008.1 0.0
18/10:00am 15.7 11.4 7.2 57 4.2 W 19 26 10 14 1008.0 1008.0 0.0
18/09:30am 15.5 11.8 7.8 60 3.8 WSW 17 28 9 15 1007.9 1007.9 0.0
18/09:00am 15.8 12.5 8.1 60 3.9 WSW 15 22 8 12 1007.8 1007.8 0.0
18/08:30am 15.2 12.7 8.2 63 3.5 WSW 11 19 6 10 1007.8 1007.8 0.0
18/08:00am 14.2 11.6 7.9 66 3.1 WSW 11 17 6 9 1007.6 1007.6 0.0
18/07:30am 14.0 10.8 8.4 69 2.8 SW 15 19 8 10 1007.0 1007.0 0.0
18/07:00am 14.3 8.8 7.4 63 3.4 W 26 37 14 20 1006.5 1006.5 0.0
18/06:30am 14.4 9.2 7.2 62 3.5 WSW 24 41 13 22 1006.3 1006.3 0.0
18/06:00am 14.4 8.8 7.2 62 3.5 W 26 39 14 21 1005.9 1005.9 0.0
18/05:30am 14.2 9.1 7.7 65 3.2 W 24 37 13 20 1006.1 1006.1 0.0
18/05:00am 14.4 8.6 7.9 65 3.2 W 28 41 15 22 1005.9 1005.9 0.0
18/04:30am 14.5 8.5 8.5 67 3.0 W 30 41 16 22 1005.8 1005.8 0.0
18/04:00am 14.9 10.1 8.8 67 3.1 W 24 35 13 19 1005.9 1005.9 0.0
18/03:30am 14.4 9.0 8.1 66 3.1 W 26 35 14 19 1006.0 1006.0 0.0
18/03:00am 14.5 9.6 8.5 67 3.0 W 24 35 13 19 1006.1 1006.1 0.0
18/02:30am 15.0 9.1 8.9 67 3.1 W 30 41 16 22 1006.0 1006.0 0.0
18/02:00am 15.6 11.0 9.7 68 3.1 W 24 35 13 19 1006.0 1006.0 0.0
18/01:30am 15.6 10.1 9.3 66 3.2 W 28 37 15 20 1006.2 1006.2 0.0
18/01:00am 15.9 10.6 9.8 67 3.2 WNW 28 43 15 23 1006.5 1006.5 0.0
18/12:30am 16.1 11.8 10.6 70 2.9 WNW 24 33 13 18 1006.4 1006.4 0.0
18/12:00am 16.1 11.9 11.1 72 2.7 WNW 24 37 13 20 1006.7 1006.7 0.0
 
Date/Time
EDT
Temp
°C
App
Temp
°C
Dew
Point
°C
Rel
Hum
%
Delta-T
°C
Wind Press
QNH
hPa
Press
MSL
hPa
Rain since
9am
mm
Dir  Spd
km/h
Gust
km/h
Spd
kts
Gust
kts
17/11:30pm 16.1 10.5 11.5 74 2.5 WNW 32 41 17 22 1006.7 1006.7 0.0
17/11:00pm 16.0 11.4 12.4 79 2.0 WNW 28 35 15 19 1006.5 1006.5 0.0
17/10:30pm 16.5 12.0 12.7 78 2.1 WNW 28 39 15 21 1006.7 1006.7 0.0
17/10:00pm 16.3 11.5 13.0 81 1.8 WNW 30 39 16 21 1006.7 1006.7 0.0
17/09:30pm 16.1 12.0 12.8 81 1.8 WNW 26 39 14 21 1006.6 1006.6 0.0
17/09:02pm 16.3 11.7 13.4 83 1.6 WNW 30 48 16 26 1006.3 1006.3 0.0
17/09:00pm 16.4 11.5 13.7 84 1.5 WNW 32 48 17 26 1006.3 1006.3 0.0
17/08:47pm 16.1 11.2 13.6 85 1.4 WNW 32 52 17 28 1006.1 1006.1 0.0
17/08:30pm 16.3 11.2 13.8 85 1.4 WNW 33 46 18 25 1006.0 1006.0 0.0
17/08:00pm 16.4 10.6 13.9 85 1.4 WNW 37 52 20 28 1005.8 1005.8 0.0
17/07:30pm 17.4 11.0 13.1 76 2.4 WNW 39 50 21 27 1005.2 1005.2 0.0
17/07:00pm 17.5 11.0 13.0 75 2.5 WNW 39 52 21 28 1005.0 1005.0 0.0
17/06:30pm 17.6 10.7 12.9 74 2.6 WNW 41 52 22 28 1005.1 1005.1 0.0
17/06:00pm 18.1 11.2 12.8 71 3.0 WNW 41 50 22 27 1005.1 1005.1 0.0
17/05:30pm 18.4 11.8 12.6 69 3.2 WNW 39 50 21 27 1004.9 1004.9 0.0
17/05:00pm 18.5 12.3 12.7 69 3.3 WNW 37 48 20 26 1005.1 1005.1 0.0
17/04:30pm 18.9 13.2 12.9 68 3.4 WNW 35 44 19 24 1005.1 1005.1 0.0
17/04:00pm 19.2 14.3 12.7 66 3.7 WNW 30 39 16 21 1005.3 1005.3 0.0
17/03:30pm 19.2 14.6 13.4 69 3.3 WNW 30 41 16 22 1005.4 1005.4 0.0
17/03:00pm 19.1 13.2 12.4 65 3.8 WNW 35 48 19 26 1005.7 1005.7 0.0
17/02:30pm 19.6 14.6 12.1 62 4.2 WNW 30 41 16 22 1005.9 1005.9 0.0
17/02:00pm 19.6 14.1 10.6 56 4.9 WNW 30 41 16 22 1006.1 1006.1 0.0
17/01:30pm 18.6 13.4 10.4 59 4.4 WNW 28 39 15 21 1006.2 1006.2 0.0
17/01:00pm 18.8 13.2 10.1 57 4.7 WNW 30 43 16 23 1006.3 1006.3 0.0
17/12:30pm 18.4 12.4 10.0 58 4.5 WNW 32 41 17 22 1006.3 1006.3 0.0
17/12:00pm 17.6 11.8 10.9 65 3.6 WNW 32 41 17 22 1006.4 1006.4 0.0
17/11:30am 18.0 12.0 10.9 63 3.8 WNW 33 50 18 27 1006.6 1006.6 0.0
17/11:00am 17.6 12.1 10.7 64 3.7 WNW 30 44 16 24 1006.6 1006.6 0.0
17/10:30am 18.9 13.8 11.9 64 3.9 WNW 30 37 16 20 1006.6 1006.6 0.0
17/10:00am 18.4 13.4 11.0 62 4.0 WNW 28 41 15 22 1006.6 1006.6 0.0
17/09:30am 18.2 13.5 10.8 62 4.0 WNW 26 39 14 21 1006.7 1006.7 0.0
17/09:00am 17.3 12.1 10.4 64 3.7 WNW 28 39 15 21 1006.9 1006.9 0.0
17/08:30am 16.6 11.3 11.1 70 3.0 WNW 30 41 16 22 1006.9 1006.9 0.0
17/08:00am 16.3 10.9 10.8 70 2.9 WNW 30 39 16 21 1006.6 1006.6 0.0
17/07:30am 16.1 10.9 10.4 69 3.0 WNW 28 41 15 22 1006.7 1006.7 0.0
17/07:00am 15.9 10.4 10.7 71 2.8 WNW 30 43 16 23 1006.4 1006.4 0.0
17/06:30am 15.7 10.1 10.0 69 3.0 WNW 30 41 16 22 1006.2 1006.2 0.0
17/06:00am 15.6 11.3 10.8 73 2.6 WNW 24 32 13 17 1006.1 1006.1 0.0
17/05:30am 15.5 10.8 10.5 72 2.6 WNW 26 37 14 20 1005.9 1005.9 0.0
17/05:00am 15.5 10.7 10.3 71 2.7 WNW 26 39 14 21 1006.0 1006.0 0.0
17/04:30am 15.5 10.7 10.3 71 2.7 WNW 26 35 14 19 1006.2 1006.2 0.0
17/04:00am 15.7 11.0 10.7 72 2.7 WNW 26 35 14 19 1006.4 1006.4 0.0
17/03:30am 15.9 10.9 10.9 72 2.7 WNW 28 37 15 20 1006.7 1006.7 0.0
17/03:00am 16.0 10.5 10.7 71 2.8 WNW 30 43 16 23 1007.0 1007.0 0.0
17/02:30am 16.2 10.5 11.2 72 2.7 WNW 32 39 17 21 1007.2 1007.2 0.0
17/02:00am 16.2 10.4 10.7 70 2.9 WNW 32 41 17 22 1007.4 1007.4 0.0
17/01:30am 16.3 10.3 10.2 67 3.2 WNW 32 43 17 23 1007.8 1007.8 0.0
17/01:00am 16.4 9.8 11.3 72 2.8 WNW 37 48 20 26 1007.9 1007.9 0.0
17/12:30am 16.5 10.7 11.6 73 2.7 NW 33 46 18 25 1007.9 1007.9 0.0
17/12:00am 16.4 11.1 11.3 72 2.8 NW 30 44 16 24 1007.9 1007.9 0.0
 
Date/Time
EDT
Temp
°C
App
Temp
°C
Dew
Point
°C
Rel
Hum
%
Delta-T
°C
Wind Press
QNH
hPa
Press
MSL
hPa
Rain since
9am
mm
Dir  Spd
km/h
Gust
km/h
Spd
kts
Gust
kts
16/11:30pm 16.3 11.1 11.5 73 2.6 WNW 30 39 16 21 1008.1 1008.1 0.0
16/11:00pm 16.1 10.4 11.1 72 2.7 WNW 32 41 17 22 1008.3 1008.3 0.0

Other Formats:

Comma delimited format used in spreadsheet applications
http://www.bom.gov.au/fwo/IDT60801/IDT60801.95985.axf

JavaScript Object Notation format (JSON) in row-major order
http://www.bom.gov.au/fwo/IDT60801/IDT60801.95985.json